createdAt,value
2022-11-30T00:01:24.559Z,48.58
2022-11-30T00:03:57.218Z,48.25
2022-11-30T00:06:25.899Z,47.00
2022-11-30T00:08:56.357Z,50.25
2022-11-30T00:11:26.284Z,49.53
2022-11-30T00:13:54.135Z,50.22
2022-11-30T00:16:22.027Z,50.67
2022-11-30T00:18:49.505Z,50.53
2022-11-30T00:21:16.752Z,53.40
2022-11-30T00:23:47.125Z,49.30
2022-11-30T00:26:19.011Z,48.70
2022-11-30T00:28:46.717Z,46.47
2022-11-30T00:31:17.453Z,49.35
2022-11-30T00:33:45.379Z,49.50
2022-11-30T00:36:18.620Z,50.25
2022-11-30T00:38:47.013Z,49.75
2022-11-30T00:41:16.031Z,48.88
2022-11-30T00:43:43.635Z,47.63
2022-11-30T00:46:11.535Z,49.50
2022-11-30T00:48:40.752Z,49.97
2022-11-30T00:51:11.079Z,47.75
2022-11-30T00:53:39.451Z,46.22
2022-11-30T00:56:08.404Z,46.25
2022-11-30T00:58:35.777Z,46.63
2022-11-30T01:01:03.502Z,47.42
2022-11-30T01:03:30.768Z,45.95
2022-11-30T01:06:09.628Z,45.22
2022-11-30T01:08:36.993Z,44.50
2022-11-30T01:11:21.289Z,44.35
2022-11-30T01:13:48.548Z,43.33
2022-11-30T01:16:22.198Z,43.00
2022-11-30T01:18:50.151Z,45.42
2022-11-30T01:21:25.992Z,46.65
2022-11-30T01:23:53.701Z,45.75
2022-11-30T01:26:21.868Z,47.22
2022-11-30T01:28:55.091Z,48.92
2022-11-30T01:31:24.696Z,48.90
2022-11-30T01:33:55.267Z,48.25
2022-11-30T01:36:26.407Z,49.00
2022-11-30T01:38:56.939Z,46.50
2022-11-30T01:41:32.080Z,47.45
2022-11-30T01:44:05.245Z,47.85
2022-11-30T01:47:06.910Z,49.35
2022-11-30T01:49:44.122Z,44.58
2022-11-30T01:52:20.668Z,45.63
2022-11-30T01:55:18.224Z,47.03
2022-11-30T01:58:11.654Z,43.00
2022-11-30T02:00:46.260Z,48.60
2022-11-30T02:03:40.353Z,48.22
2022-11-30T02:06:08.416Z,51.10
2022-11-30T02:08:35.796Z,48.95
2022-11-30T02:11:13.435Z,51.58
2022-11-30T02:14:13.613Z,50.65
2022-11-30T02:17:00.751Z,52.05
2022-11-30T02:20:23.596Z,53.08
2022-11-30T02:23:44.304Z,52.05
2022-11-30T02:27:00.973Z,53.35
2022-11-30T02:30:04.214Z,49.83
2022-11-30T02:32:42.881Z,48.33
2022-11-30T02:35:12.091Z,49.03
2022-11-30T02:37:40.369Z,45.53
2022-11-30T02:40:13.089Z,44.40
2022-11-30T02:42:40.262Z,47.85
2022-11-30T02:45:09.663Z,45.97
2022-11-30T02:48:08.770Z,44.22
2022-11-30T02:50:55.129Z,45.70
2022-11-30T02:53:22.730Z,47.83
2022-11-30T02:55:49.910Z,46.30
2022-11-30T02:58:18.035Z,44.20
2022-11-30T03:00:45.648Z,44.10
2022-11-30T03:03:13.107Z,44.72
2022-11-30T03:05:40.411Z,45.40
2022-11-30T03:08:07.609Z,44.88
2022-11-30T03:10:34.809Z,46.25
2022-11-30T03:13:02.129Z,44.05
2022-11-30T03:15:29.357Z,45.30
2022-11-30T03:17:56.794Z,44.03
2022-11-30T03:20:24.109Z,46.35
2022-11-30T03:22:51.345Z,43.85
2022-11-30T03:25:18.572Z,44.25
2022-11-30T03:27:45.813Z,43.50
2022-11-30T03:30:13.444Z,42.70
2022-11-30T03:32:40.629Z,44.05
2022-11-30T03:35:08.477Z,42.85
2022-11-30T03:37:35.642Z,44.33
2022-11-30T03:40:03.817Z,43.63
2022-11-30T03:42:31.000Z,45.40
2022-11-30T03:44:58.251Z,45.40
2022-11-30T03:47:25.408Z,46.45
2022-11-30T03:49:52.642Z,48.70
2022-11-30T03:52:19.828Z,55.30
2022-11-30T03:54:47.261Z,53.20
2022-11-30T03:57:14.663Z,57.70
2022-11-30T03:59:41.909Z,53.63
2022-11-30T04:02:09.189Z,55.33
2022-11-30T04:04:36.412Z,60.58
2022-11-30T04:07:03.687Z,58.53
2022-11-30T04:09:31.123Z,59.00
2022-11-30T04:11:58.965Z,56.75
2022-11-30T04:14:26.240Z,53.83
2022-11-30T04:16:53.447Z,52.65
2022-11-30T04:19:20.737Z,52.42
2022-11-30T04:21:48.107Z,52.40
2022-11-30T04:24:15.307Z,52.40
2022-11-30T04:26:42.659Z,51.88
2022-11-30T04:29:10.040Z,50.70
2022-11-30T04:31:37.397Z,50.25
2022-11-30T04:34:04.802Z,52.50
2022-11-30T04:36:32.033Z,51.70
2022-11-30T04:38:59.308Z,51.65
2022-11-30T04:41:26.496Z,50.33
2022-11-30T04:43:53.720Z,46.83
2022-11-30T04:46:21.029Z,49.00
2022-11-30T04:48:48.244Z,50.30
2022-11-30T04:51:15.423Z,49.33
2022-11-30T04:53:42.559Z,47.70
2022-11-30T04:56:11.855Z,48.15
2022-11-30T04:58:39.836Z,50.75
2022-11-30T05:01:07.831Z,49.78
2022-11-30T05:03:35.623Z,47.20
2022-11-30T05:06:03.609Z,46.17
2022-11-30T05:08:30.962Z,48.13
2022-11-30T05:10:58.148Z,46.63
2022-11-30T05:13:26.519Z,47.20
2022-11-30T05:15:54.262Z,46.92
2022-11-30T05:18:22.253Z,49.33
2022-11-30T05:20:51.683Z,52.08
2022-11-30T05:23:20.533Z,52.28
2022-11-30T05:25:47.971Z,52.20
2022-11-30T05:28:15.712Z,52.25
2022-11-30T05:30:44.089Z,55.10
2022-11-30T05:33:12.028Z,58.75
2022-11-30T05:35:39.572Z,61.17
2022-11-30T05:38:06.768Z,65.60
2022-11-30T05:40:33.960Z,66.13
2022-11-30T05:43:03.654Z,66.90
2022-11-30T05:45:31.494Z,66.88
2022-11-30T05:47:58.704Z,64.07
2022-11-30T05:50:25.901Z,66.97
2022-11-30T05:52:57.796Z,68.68
2022-11-30T05:55:25.448Z,66.03
2022-11-30T05:57:53.229Z,64.78
2022-11-30T06:00:21.997Z,60.33
2022-11-30T06:02:55.535Z,61.35
2022-11-30T06:05:22.792Z,58.75
2022-11-30T06:07:50.053Z,59.75
2022-11-30T06:10:17.856Z,53.67
2022-11-30T06:12:45.091Z,54.65
2022-11-30T06:15:12.529Z,56.03
2022-11-30T06:17:39.767Z,53.72
2022-11-30T06:20:08.856Z,52.28
2022-11-30T06:22:36.238Z,51.20
2022-11-30T06:25:04.539Z,53.38
2022-11-30T06:27:32.341Z,52.63
2022-11-30T06:29:59.687Z,52.10
2022-11-30T06:32:26.913Z,50.95
2022-11-30T06:34:54.124Z,49.50
2022-11-30T06:37:21.313Z,51.42
2022-11-30T06:40:05.935Z,47.95
2022-11-30T06:42:35.200Z,49.35
2022-11-30T06:45:03.080Z,48.17
2022-11-30T06:47:30.927Z,49.03
2022-11-30T06:49:58.068Z,48.10
2022-11-30T06:52:25.696Z,49.33
2022-11-30T06:54:52.994Z,46.35
2022-11-30T06:57:20.253Z,43.72
2022-11-30T06:59:47.521Z,44.45
2022-11-30T07:02:18.303Z,44.90
2022-11-30T07:04:47.212Z,46.13
2022-11-30T07:07:15.202Z,44.28
2022-11-30T07:09:42.780Z,45.03
2022-11-30T07:12:10.014Z,49.03
2022-11-30T07:14:37.228Z,49.10
2022-11-30T07:17:04.681Z,53.67
2022-11-30T07:19:36.022Z,56.83
2022-11-30T07:22:03.464Z,61.22
2022-11-30T07:24:49.789Z,56.92
2022-11-30T07:27:17.258Z,51.28
2022-11-30T07:29:44.463Z,49.10
2022-11-30T07:32:11.714Z,46.70
2022-11-30T07:34:38.972Z,49.78
2022-11-30T07:37:06.244Z,51.03
2022-11-30T07:39:33.393Z,50.20
2022-11-30T07:42:00.662Z,50.53
2022-11-30T07:44:27.977Z,48.33
2022-11-30T07:46:55.225Z,46.70
2022-11-30T07:49:22.424Z,48.58
2022-11-30T07:51:49.620Z,44.90
2022-11-30T07:54:16.916Z,43.67
2022-11-30T07:56:44.108Z,40.45
2022-11-30T07:59:11.346Z,40.53
2022-11-30T08:01:38.575Z,39.03
2022-11-30T08:04:06.042Z,39.10
2022-11-30T08:06:33.331Z,37.47
2022-11-30T08:09:04.558Z,38.88
2022-11-30T08:11:37.000Z,38.88
2022-11-30T08:14:05.380Z,37.75
2022-11-30T08:16:40.304Z,37.75
2022-11-30T08:19:07.576Z,37.60
2022-11-30T08:21:35.076Z,40.15
2022-11-30T08:24:02.715Z,38.60
2022-11-30T08:26:33.822Z,37.05
2022-11-30T08:29:01.873Z,37.72
2022-11-30T08:31:33.769Z,39.55
2022-11-30T08:34:11.247Z,39.58
2022-11-30T08:36:40.412Z,38.40
2022-11-30T08:39:11.395Z,40.08
2022-11-30T08:41:39.296Z,37.67
2022-11-30T08:44:07.023Z,36.85
2022-11-30T08:46:52.173Z,39.50
2022-11-30T08:49:22.889Z,39.40
2022-11-30T08:54:45.895Z,36.55
2022-11-30T08:57:20.341Z,38.92
2022-11-30T08:59:48.646Z,36.67
2022-11-30T09:02:19.522Z,38.05
2022-11-30T09:04:49.461Z,37.60
2022-11-30T09:07:17.440Z,40.22
2022-11-30T09:09:44.830Z,38.35
2022-11-30T09:12:11.988Z,39.45
2022-11-30T09:14:39.132Z,37.95
2022-11-30T09:17:06.378Z,36.03
2022-11-30T09:19:33.552Z,35.83
2022-11-30T09:22:00.697Z,36.47
2022-11-30T09:24:28.066Z,37.35
2022-11-30T09:26:57.337Z,37.40
2022-11-30T09:29:24.542Z,36.85
2022-11-30T09:31:51.798Z,36.55
2022-11-30T09:34:19.225Z,35.55
2022-11-30T09:36:46.381Z,38.85
2022-11-30T09:39:13.875Z,36.53
2022-11-30T09:42:17.517Z,35.55
2022-11-30T09:45:04.467Z,34.63
2022-11-30T09:48:02.081Z,34.80
2022-11-30T09:50:39.115Z,34.42
2022-11-30T09:53:22.045Z,35.42
2022-11-30T09:55:54.788Z,34.78
2022-11-30T09:58:53.157Z,31.65
2022-11-30T10:01:21.943Z,33.10
2022-11-30T10:03:49.868Z,33.50
2022-11-30T10:06:51.283Z,32.80
2022-11-30T10:10:23.600Z,34.20
2022-11-30T10:13:00.747Z,33.40
2022-11-30T10:16:00.590Z,34.17
2022-11-30T10:18:32.125Z,32.92
2022-11-30T10:21:36.449Z,34.30
2022-11-30T10:24:53.402Z,33.20
2022-11-30T10:27:51.666Z,34.60
2022-11-30T10:30:35.624Z,34.20
2022-11-30T10:33:19.104Z,34.40
2022-11-30T10:36:08.426Z,32.88
2022-11-30T10:38:51.651Z,34.25
2022-11-30T10:41:37.481Z,32.65
2022-11-30T10:44:15.935Z,34.65
2022-11-30T10:47:01.799Z,35.28
2022-11-30T10:49:31.998Z,35.65
2022-11-30T10:52:06.213Z,35.08
2022-11-30T10:54:36.982Z,34.40
2022-11-30T10:57:07.099Z,35.17
2022-11-30T10:59:53.154Z,35.10
2022-11-30T11:05:23.896Z,36.70
2022-11-30T11:08:06.215Z,37.20
2022-11-30T11:10:51.472Z,36.08
2022-11-30T11:13:43.980Z,35.03
2022-11-30T11:16:13.495Z,37.90
2022-11-30T11:19:46.434Z,37.03
2022-11-30T11:22:27.579Z,35.80
2022-11-30T11:25:21.312Z,35.88
2022-11-30T11:28:04.586Z,35.40
2022-11-30T11:30:33.500Z,37.22
2022-11-30T11:33:26.374Z,36.58
2022-11-30T11:36:14.851Z,38.90
2022-11-30T11:38:47.120Z,37.67
2022-11-30T11:41:37.463Z,37.38
2022-11-30T11:44:09.382Z,35.95
2022-11-30T11:46:57.539Z,35.38
2022-11-30T11:49:37.903Z,35.53
2022-11-30T11:52:11.123Z,34.00
2022-11-30T11:55:03.326Z,36.10
2022-11-30T11:57:45.227Z,34.25
2022-11-30T12:00:25.284Z,35.05
2022-11-30T12:03:26.419Z,34.20
2022-11-30T12:06:11.611Z,34.83
2022-11-30T12:08:57.411Z,34.88
2022-11-30T12:11:45.535Z,35.30
2022-11-30T12:14:19.251Z,34.63
2022-11-30T12:17:40.345Z,35.28
2022-11-30T12:20:58.464Z,34.00
2022-11-30T12:24:10.163Z,33.15
2022-11-30T12:27:11.548Z,32.35
2022-11-30T12:29:54.164Z,32.65
2022-11-30T12:32:58.118Z,32.30
2022-11-30T12:36:14.070Z,31.02
2022-11-30T12:39:09.977Z,33.33
2022-11-30T12:42:06.958Z,33.40
2022-11-30T12:45:17.079Z,33.00
2022-11-30T12:48:21.539Z,32.35
2022-11-30T12:51:06.648Z,33.25
2022-11-30T12:54:10.025Z,32.83
2022-11-30T12:56:50.127Z,32.28
2022-11-30T13:00:31.728Z,33.80
2022-11-30T13:03:42.554Z,31.70
2022-11-30T13:06:14.256Z,34.67
2022-11-30T13:09:06.812Z,32.72
2022-11-30T13:11:41.341Z,32.40
2022-11-30T13:14:22.992Z,32.38
2022-11-30T13:17:17.302Z,31.08
2022-11-30T13:20:29.141Z,33.08
2022-11-30T13:23:35.979Z,31.27
2022-11-30T13:27:18.559Z,29.23
2022-11-30T13:30:29.349Z,31.20
2022-11-30T13:32:58.543Z,32.15
2022-11-30T13:35:29.311Z,32.38
2022-11-30T13:38:36.209Z,32.33
2022-11-30T13:40:59.280Z,31.60
2022-11-30T13:43:35.677Z,31.05
2022-11-30T13:46:23.773Z,32.40
2022-11-30T13:49:29.033Z,31.40
2022-11-30T13:52:21.669Z,31.83
2022-11-30T13:54:57.163Z,31.58
2022-11-30T13:57:30.511Z,31.05
2022-11-30T14:00:00.119Z,32.75
2022-11-30T14:02:54.434Z,35.72
2022-11-30T14:05:39.897Z,33.15
2022-11-30T14:08:07.073Z,31.20
2022-11-30T14:10:37.724Z,31.70
2022-11-30T14:13:10.987Z,33.85
2022-11-30T14:15:41.905Z,33.28
2022-11-30T14:18:08.936Z,32.55
2022-11-30T14:21:03.825Z,32.33
2022-11-30T14:23:48.796Z,31.88
2022-11-30T14:26:29.479Z,31.65
2022-11-30T14:29:07.484Z,32.83
2022-11-30T14:32:06.065Z,33.53
2022-11-30T14:34:46.293Z,31.83
2022-11-30T14:37:25.390Z,32.00
2022-11-30T14:40:02.092Z,33.08
2022-11-30T14:42:32.861Z,31.83
2022-11-30T14:45:00.354Z,33.50
2022-11-30T14:47:36.268Z,32.55
2022-11-30T14:50:06.620Z,31.95
2022-11-30T14:53:21.685Z,32.42
2022-11-30T14:56:19.952Z,31.42
2022-11-30T14:59:07.275Z,33.17
2022-11-30T15:01:34.559Z,31.50
2022-11-30T15:04:13.371Z,31.88
2022-11-30T15:06:41.453Z,29.58
2022-11-30T15:09:23.389Z,30.17
2022-11-30T15:11:52.590Z,30.92
2022-11-30T15:14:20.005Z,30.38
2022-11-30T15:16:58.003Z,28.67
2022-11-30T15:19:32.832Z,31.20
2022-11-30T15:22:00.795Z,30.25
2022-11-30T15:24:29.766Z,30.02
2022-11-30T15:27:10.919Z,30.73
2022-11-30T15:29:47.376Z,31.40
2022-11-30T15:32:19.769Z,32.92
2022-11-30T15:35:00.814Z,31.90
2022-11-30T15:37:39.590Z,30.42
2022-11-30T15:40:10.727Z,31.75
2022-11-30T15:42:40.567Z,29.70
2022-11-30T15:45:27.486Z,31.05
2022-11-30T15:47:57.280Z,31.27
2022-11-30T15:50:28.323Z,29.85
2022-11-30T15:53:01.836Z,32.17
2022-11-30T15:55:49.552Z,29.98
2022-11-30T15:58:56.800Z,31.63
2022-11-30T16:01:26.008Z,30.98
2022-11-30T16:03:56.296Z,31.45
2022-11-30T16:06:44.687Z,29.65
2022-11-30T16:09:32.441Z,30.17
2022-11-30T16:12:01.805Z,30.60
2022-11-30T16:14:29.084Z,33.50
2022-11-30T16:16:56.365Z,32.08
2022-11-30T16:19:23.661Z,33.30
2022-11-30T16:21:50.880Z,32.17
2022-11-30T16:24:18.436Z,31.35
2022-11-30T16:26:52.857Z,32.38
2022-11-30T16:29:20.651Z,33.88
2022-11-30T16:31:48.061Z,34.38
2022-11-30T16:34:15.341Z,40.83
2022-11-30T16:36:42.644Z,32.67
2022-11-30T16:39:12.857Z,31.02
2022-11-30T16:41:40.068Z,31.13
2022-11-30T16:44:14.164Z,32.28
2022-11-30T16:46:41.482Z,32.47
2022-11-30T16:49:08.766Z,32.47
2022-11-30T16:51:36.352Z,31.58
2022-11-30T16:54:04.317Z,31.35
2022-11-30T16:56:31.581Z,32.75
2022-11-30T16:58:58.808Z,33.28
2022-11-30T17:01:45.896Z,34.88
2022-11-30T17:04:26.972Z,36.85
2022-11-30T17:07:00.454Z,34.58
2022-11-30T17:09:30.276Z,33.47
2022-11-30T17:11:57.591Z,31.73
2022-11-30T17:14:24.809Z,31.02
2022-11-30T17:16:52.203Z,30.73
2022-11-30T17:19:20.605Z,31.85
2022-11-30T17:21:49.985Z,32.10
2022-11-30T17:24:17.222Z,33.05
2022-11-30T17:26:44.461Z,34.78
2022-11-30T17:29:11.659Z,33.75
2022-11-30T17:31:38.848Z,34.42
2022-11-30T17:34:08.534Z,32.72
2022-11-30T17:36:35.742Z,31.13
2022-11-30T17:39:07.813Z,31.35
2022-11-30T17:41:35.139Z,31.98
2022-11-30T17:44:02.902Z,31.52
2022-11-30T17:46:30.159Z,28.85
2022-11-30T17:48:57.632Z,30.77
2022-11-30T17:51:24.894Z,31.15
2022-11-30T17:53:52.122Z,30.20
2022-11-30T17:56:19.369Z,33.35
2022-11-30T17:58:49.116Z,30.98
2022-11-30T18:01:27.501Z,31.95
2022-11-30T18:03:56.564Z,29.58
2022-11-30T18:06:23.965Z,30.48
2022-11-30T18:08:51.327Z,31.15
2022-11-30T18:11:25.082Z,32.40
2022-11-30T18:13:56.036Z,33.70
2022-11-30T18:16:37.177Z,36.55
2022-11-30T18:19:12.408Z,39.70
2022-11-30T18:21:43.763Z,40.38
2022-11-30T18:24:12.568Z,39.50
2022-11-30T18:26:40.399Z,36.47
2022-11-30T18:29:08.104Z,38.75
2022-11-30T18:31:36.275Z,37.30
2022-11-30T18:34:07.425Z,31.02
2022-11-30T18:36:35.077Z,30.70
2022-11-30T18:39:02.307Z,30.75
2022-11-30T18:41:30.421Z,29.38
2022-11-30T18:43:58.541Z,34.67
2022-11-30T18:46:26.597Z,34.65
2022-11-30T18:48:54.612Z,39.13
2022-11-30T18:51:30.190Z,44.05
2022-11-30T18:54:02.906Z,37.20
2022-11-30T18:56:34.409Z,36.50
2022-11-30T18:59:09.897Z,38.55
2022-11-30T19:01:37.763Z,35.72
2022-11-30T19:04:11.333Z,31.92
2022-11-30T19:06:41.931Z,34.88
2022-11-30T19:09:14.763Z,33.17
2022-11-30T19:11:43.402Z,36.03
2022-11-30T19:14:15.000Z,33.47
2022-11-30T19:16:43.834Z,33.67
2022-11-30T19:19:15.294Z,32.33
2022-11-30T19:21:47.207Z,35.20
2022-11-30T19:24:16.286Z,36.67
2022-11-30T19:26:48.759Z,36.70
2022-11-30T19:29:19.791Z,35.13
2022-11-30T19:31:49.435Z,35.20
2022-11-30T19:34:17.850Z,33.25
2022-11-30T19:36:46.272Z,33.38
2022-11-30T19:39:13.538Z,34.90
2022-11-30T19:41:40.738Z,32.13
2022-11-30T19:44:14.278Z,33.03
2022-11-30T19:46:42.226Z,34.50
2022-11-30T19:49:10.648Z,31.02
2022-11-30T19:51:38.033Z,34.78
2022-11-30T19:54:05.295Z,32.50
2022-11-30T19:56:34.632Z,35.40
2022-11-30T19:59:05.490Z,31.13
2022-11-30T20:01:34.736Z,31.92
2022-11-30T20:04:02.774Z,32.38
2022-11-30T20:06:37.318Z,35.20
2022-11-30T20:09:07.469Z,32.45
2022-11-30T20:11:35.296Z,34.03
2022-11-30T20:14:02.811Z,32.22
2022-11-30T20:16:30.323Z,34.88
2022-11-30T20:19:01.456Z,34.70
2022-11-30T20:21:34.962Z,34.10
2022-11-30T20:24:07.138Z,37.83
2022-11-30T20:26:42.102Z,34.10
2022-11-30T20:29:15.903Z,36.35
2022-11-30T20:31:46.215Z,36.45
2022-11-30T20:34:13.535Z,37.78
2022-11-30T20:36:40.930Z,42.30
2022-11-30T20:39:10.008Z,43.45
2022-11-30T20:41:37.325Z,51.13
2022-11-30T20:44:04.995Z,53.22
2022-11-30T20:46:36.344Z,50.03
2022-11-30T20:49:13.885Z,50.63
2022-11-30T20:51:42.155Z,48.65
2022-11-30T20:54:11.899Z,40.30
2022-11-30T20:56:41.067Z,39.45
2022-11-30T20:59:16.855Z,38.67
2022-11-30T21:01:46.976Z,39.63
2022-11-30T21:04:14.465Z,43.67
2022-11-30T21:06:45.603Z,43.22
2022-11-30T21:09:19.085Z,42.13
2022-11-30T21:11:48.649Z,36.50
2022-11-30T21:14:17.801Z,36.88
2022-11-30T21:16:45.045Z,36.13
2022-11-30T21:19:14.045Z,35.15
2022-11-30T21:21:41.330Z,37.33
2022-11-30T21:24:11.384Z,36.90
2022-11-30T21:26:42.222Z,39.25
2022-11-30T21:29:16.964Z,44.42
2022-11-30T21:31:45.028Z,45.57
2022-11-30T21:34:12.842Z,41.30
2022-11-30T21:36:40.161Z,39.42
2022-11-30T21:39:09.212Z,41.58
2022-11-30T21:41:39.542Z,38.45
2022-11-30T21:44:13.238Z,39.28
2022-11-30T21:46:41.460Z,36.95
2022-11-30T21:49:11.671Z,37.60
2022-11-30T21:51:39.448Z,39.33
2022-11-30T21:54:11.812Z,37.33
2022-11-30T21:56:42.558Z,38.65
2022-11-30T21:59:14.000Z,37.42
2022-11-30T22:01:43.613Z,38.45
2022-11-30T22:04:13.255Z,38.65
2022-11-30T22:06:42.318Z,36.55
2022-11-30T22:09:17.699Z,35.50
2022-11-30T22:11:45.765Z,34.63
2022-11-30T22:14:16.491Z,35.78
2022-11-30T22:16:44.585Z,38.08
2022-11-30T22:19:11.887Z,36.72
2022-11-30T22:21:39.723Z,36.65
2022-11-30T22:24:11.612Z,36.70
2022-11-30T22:26:43.142Z,39.63
2022-11-30T22:29:22.630Z,39.22
2022-11-30T22:31:53.446Z,38.80
2022-11-30T22:34:21.429Z,40.13
2022-11-30T22:36:49.031Z,42.00
2022-11-30T22:39:21.600Z,41.17
2022-11-30T22:41:55.645Z,40.90
2022-11-30T22:44:24.613Z,42.80
2022-11-30T22:46:51.923Z,41.25
2022-11-30T22:49:21.483Z,40.55
2022-11-30T22:51:50.118Z,40.80
2022-11-30T22:54:18.355Z,40.97
2022-11-30T22:56:46.465Z,43.63
2022-11-30T22:59:15.768Z,43.10
2022-11-30T23:01:49.655Z,40.72
2022-11-30T23:04:20.870Z,41.22
2022-11-30T23:06:49.829Z,42.45
2022-11-30T23:09:22.884Z,40.80
2022-11-30T23:11:51.586Z,42.33
2022-11-30T23:14:19.635Z,40.67
2022-11-30T23:16:47.560Z,40.50
2022-11-30T23:19:15.373Z,40.45
2022-11-30T23:21:45.329Z,41.42
2022-11-30T23:24:22.355Z,40.33
2022-11-30T23:26:50.031Z,41.88
2022-11-30T23:29:18.410Z,41.53
2022-11-30T23:31:47.479Z,40.30
2022-11-30T23:34:22.121Z,40.22
2022-11-30T23:36:50.627Z,42.20
2022-11-30T23:39:19.797Z,39.53
2022-11-30T23:41:47.244Z,42.35
2022-11-30T23:44:14.659Z,41.10
2022-11-30T23:46:42.170Z,43.30
2022-11-30T23:49:09.718Z,44.08
2022-11-30T23:51:37.053Z,43.10
2022-11-30T23:54:05.074Z,43.47
2022-11-30T23:56:32.511Z,44.90
2022-11-30T23:58:59.767Z,43.03
